Rainbow Wing — 3FIQ7 — position and weather

sailwx.info

Track history (hours):
 
Tides and Currents Weather Stations Pressure Air Temp Water Temp Dewpoint Dewpoint Depression Visibility Wind Speed Wind Dir Waves Ship Positions

Rainbow Wing

Last reported at 2017-Oct-02 15:33 UTC. Time now 2017-Oct-20 07:24 UTC.
Position N 32°12' E 031°27'.
Warning: this ship's position is 17 days out of date.

Length 190 m; beam 32.3 m.

Type: Cargo ship. MMSI: 374081000.

Date/timePositionNaut miles runAvg speedWind from/ knotsBaromVisibWave heightAir tempDewpointWater temp
2017-Oct-02 15:33N 32°12' E 031°27'1 5.8
2017-Oct-02 15:27N 32°12' E 031°26'30 5.8
2017-Oct-02 10:15N 32°35' E 031°03'8 6.0
2017-Oct-02 08:57N 32°41' E 030°57'  
2017-Sep-26 18:38N 43°35' E 028°55'410.8
2017-Sep-26 18:17N 43°38' E 028°54'411.1
2017-Sep-26 17:56N 43°42' E 028°53'510.7
2017-Sep-26 17:30N 43°47' E 028°53'510.6
2017-Sep-26 17:00N 43°52' E 028°52'510.0
2017-Sep-26 16:30N 43°57' E 028°51'3 5.3
2017-Sep-26 16:00N 43°58' E 028°48'510.4
2017-Sep-26 15:30N 44°03' E 028°46'3 5.8
2017-Sep-26 15:00N 44°05' E 028°43'5 8.9
2017-Sep-26 14:30N 44°09' E 028°40'1 1.0
2017-Sep-26 13:59N 44°09' E 028°39'0 0.0
2017-Sep-26 13:29N 44°09' E 028°39'0 0.0
2017-Sep-26 12:59N 44°09' E 028°39'0 0.0
2017-Sep-26 12:29N 44°09' E 028°39'0 0.0
2017-Sep-26 11:59N 44°09' E 028°39'0 0.0
2017-Sep-26 11:29N 44°09' E 028°39'0 0.0
2017-Sep-26 10:59N 44°09' E 028°39'0 0.0
2017-Sep-26 10:26N 44°09' E 028°39'0 0.0
2017-Sep-26 09:56N 44°09' E 028°39'0 0.0
2017-Sep-26 09:29N 44°09' E 028°39'0 0.0
2017-Sep-26 08:59N 44°09' E 028°39'0 0.0
2017-Sep-26 08:29N 44°09' E 028°39'0 0.0
2017-Sep-26 07:53N 44°09' E 028°39'0 0.0
2017-Sep-26 07:29N 44°09' E 028°39'0 0.0
2017-Sep-26 06:59N 44°09' E 028°39'0 0.0
2017-Sep-26 06:29N 44°09' E 028°39'0 0.0
2017-Sep-26 05:59N 44°09' E 028°39'0 0.0
2017-Sep-26 05:29N 44°09' E 028°39'0 0.0
2017-Sep-26 04:59N 44°09' E 028°39'0 0.0
2017-Sep-26 04:29N 44°09' E 028°39'0 0.0
2017-Sep-26 03:59N 44°09' E 028°39'0 0.0
2017-Sep-26 03:29N 44°09' E 028°39'0 0.0
2017-Sep-26 02:59N 44°09' E 028°39'0 0.0
2017-Sep-26 02:29N 44°09' E 028°39'0 0.0
2017-Sep-26 01:59N 44°09' E 028°39'0 0.0
2017-Sep-26 01:29N 44°09' E 028°39'0 0.0
2017-Sep-26 00:59N 44°09' E 028°39'0 0.0
2017-Sep-26 00:29N 44°09' E 028°39'0 0.0
2017-Sep-25 23:59N 44°09' E 028°39'0 0.0
2017-Sep-25 23:29N 44°09' E 028°39'0 0.0
2017-Sep-25 22:56N 44°09' E 028°39'0 0.0
2017-Sep-25 22:29N 44°09' E 028°39'0 0.0
2017-Sep-25 21:59N 44°09' E 028°39'0 0.0
2017-Sep-25 21:29N 44°09' E 028°39'0 0.0
2017-Sep-25 20:56N 44°09' E 028°39'0 0.0
2017-Sep-25 20:29N 44°09' E 028°39'0 0.0
2017-Sep-25 19:59N 44°09' E 028°39'0 0.0
2017-Sep-25 19:29N 44°09' E 028°39'0 0.0
2017-Sep-25 18:59N 44°09' E 028°39'0 0.0
2017-Sep-25 18:26N 44°09' E 028°39'0 0.0
2017-Sep-25 17:59N 44°09' E 028°39'0 0.0
2017-Sep-25 17:29N 44°09' E 028°39'0 0.0
2017-Sep-25 16:59N 44°09' E 028°39'0 0.0
2017-Sep-25 16:29N 44°09' E 028°39'0 0.0
2017-Sep-25 15:59N 44°09' E 028°39'0 0.0
2017-Sep-25 15:29N 44°09' E 028°39'0 0.0
2017-Sep-25 14:59N 44°09' E 028°39'0 0.0
2017-Sep-25 14:29N 44°09' E 028°39'0 0.0
2017-Sep-25 13:59N 44°09' E 028°39'0 0.0
2017-Sep-25 13:29N 44°09' E 028°39'0 0.0
2017-Sep-25 12:59N 44°09' E 028°39'0 0.0
2017-Sep-25 12:29N 44°09' E 028°39'0 0.0
2017-Sep-25 11:59N 44°09' E 028°39'0 0.0
2017-Sep-25 11:29N 44°09' E 028°39'0 0.0
2017-Sep-25 10:59N 44°09' E 028°39'0 0.0
2017-Sep-25 10:26N 44°09' E 028°39'0 0.0
2017-Sep-25 09:59N 44°09' E 028°39'0 0.0
2017-Sep-25 09:29N 44°09' E 028°39'0 0.0
2017-Sep-25 08:59N 44°09' E 028°39'0 0.0
2017-Sep-25 08:29N 44°09' E 028°39'0 0.0
2017-Sep-25 07:59N 44°09' E 028°39'0 0.0
2017-Sep-25 07:29N 44°09' E 028°39'0 0.0
2017-Sep-25 06:59N 44°09' E 028°39'0 0.0
2017-Sep-25 06:29N 44°09' E 028°39'0 0.0
2017-Sep-25 05:59N 44°09' E 028°39'0 0.0
2017-Sep-25 05:29N 44°09' E 028°39'0 0.0
2017-Sep-25 04:56N 44°09' E 028°39'0 0.0
2017-Sep-25 04:29N 44°09' E 028°39'0 0.0
2017-Sep-25 03:59N 44°09' E 028°39'0 0.0
2017-Sep-25 03:29N 44°09' E 028°39'0 0.0
2017-Sep-25 02:59N 44°09' E 028°39'0 0.0
2017-Sep-25 02:29N 44°09' E 028°39'0 0.0
2017-Sep-25 01:59N 44°09' E 028°39'0 0.0
2017-Sep-25 01:29N 44°09' E 028°39'0 0.0
2017-Sep-25 00:59N 44°09' E 028°39'0 0.0
2017-Sep-25 00:29N 44°09' E 028°39'0 0.0
2017-Sep-24 23:59N 44°09' E 028°39'0 0.0
2017-Sep-24 23:29N 44°09' E 028°39'0 0.0
2017-Sep-24 22:59N 44°09' E 028°39'0 0.0
2017-Sep-24 22:29N 44°09' E 028°39'0 0.0
2017-Sep-24 21:59N 44°09' E 028°39'0 0.0
2017-Sep-24 21:29N 44°09' E 028°39'0 0.0
2017-Sep-24 20:59N 44°09' E 028°39'0 0.0
2017-Sep-24 20:29N 44°09' E 028°39'0 0.0
2017-Sep-24 19:59N 44°09' E 028°39'0 0.0
2017-Sep-24 19:29N 44°09' E 028°39'0 0.0
2017-Sep-24 18:59N 44°09' E 028°39'0 0.0
2017-Sep-24 18:20N 44°09' E 028°39'0 0.0
2017-Sep-24 17:59N 44°09' E 028°39'0 0.0
2017-Sep-24 17:29N 44°09' E 028°39'0 0.0
2017-Sep-24 16:59N 44°09' E 028°39'0 0.0
2017-Sep-24 16:29N 44°09' E 028°39'0 0.0
2017-Sep-24 15:59N 44°09' E 028°39'0 0.0
2017-Sep-24 15:29N 44°09' E 028°39'0 0.0
2017-Sep-24 14:59N 44°09' E 028°39'0 0.0
2017-Sep-24 14:29N 44°09' E 028°39'0 0.0
2017-Sep-24 13:59N 44°09' E 028°39'0 0.0
2017-Sep-24 13:29N 44°09' E 028°39'0 0.0
2017-Sep-24 12:59N 44°09' E 028°39'0 0.0
2017-Sep-24 12:29N 44°09' E 028°39'0 0.2
2017-Sep-24 11:59N 44°09' E 028°39'0 0.4
2017-Sep-24 11:29N 44°10' E 028°39'0 0.6
2017-Sep-24 10:59N 44°10' E 028°39'0 0.0
2017-Sep-24 10:29N 44°10' E 028°39'0 0.0
2017-Sep-24 09:59N 44°10' E 028°39'0 0.0
2017-Sep-24 09:29N 44°10' E 028°39'0 0.0
2017-Sep-24 08:59N 44°10' E 028°39'0 0.0
2017-Sep-24 08:29N 44°10' E 028°39'0 0.0
2017-Sep-24 07:59N 44°10' E 028°39'0 0.0
2017-Sep-24 07:29N 44°10' E 028°39'0 0.0
2017-Sep-24 06:59N 44°10' E 028°39'0 0.0
2017-Sep-24 06:29N 44°10' E 028°39'0 0.0
2017-Sep-24 05:59N 44°10' E 028°39'0 0.0
2017-Sep-24 05:29N 44°10' E 028°39'0 0.0
2017-Sep-24 04:59N 44°10' E 028°39'0 0.0
2017-Sep-24 04:29N 44°10' E 028°39'0 0.0
2017-Sep-24 03:59N 44°10' E 028°39'0 0.0
2017-Sep-24 03:26N 44°10' E 028°39'0 0.0
2017-Sep-24 02:59N 44°10' E 028°39'0 0.0
2017-Sep-24 02:26N 44°10' E 028°39'0 0.0
2017-Sep-24 01:59N 44°10' E 028°39'0 0.0
2017-Sep-24 01:29N 44°10' E 028°39'0 0.0
2017-Sep-24 00:59N 44°10' E 028°39'0 0.0
2017-Sep-24 00:29N 44°10' E 028°39'0 0.0
2017-Sep-23 23:59N 44°10' E 028°39'0 0.0
2017-Sep-23 23:29N 44°10' E 028°39'0 0.0
2017-Sep-23 22:59N 44°10' E 028°39'0 0.0
2017-Sep-23 22:29N 44°10' E 028°39'0 0.0
2017-Sep-23 21:59N 44°10' E 028°39'0 0.0
2017-Sep-23 21:29N 44°10' E 028°39'0 0.0
2017-Sep-23 20:59N 44°10' E 028°39'0 0.0
2017-Sep-23 20:29N 44°10' E 028°39'0 0.0
2017-Sep-23 19:59N 44°10' E 028°39'  
Track history (hours):
 
Tides and Currents Weather Stations Pressure Air Temp Water Temp Dewpoint Dewpoint Depression Visibility Wind Speed Wind Dir Waves Ship Positions

Rainbow Wing

Last reported at 2017-Oct-02 15:33 UTC. Time now 2017-Oct-20 07:24 UTC.
Position N 32°12' E 031°27'.
Warning: this ship's position is 17 days out of date.

Length 190 m; beam 32.3 m.

Type: Cargo ship. MMSI: 374081000.

Date/timePositionNaut miles runAvg speedWind from/ knotsBaromVisibWave heightAir tempDewpointWater temp
2017-Oct-02 15:33N 32°12' E 031°27'1 5.8
2017-Oct-02 15:27N 32°12' E 031°26'30 5.8
2017-Oct-02 10:15N 32°35' E 031°03'8 6.0
2017-Oct-02 08:57N 32°41' E 030°57'  
2017-Sep-26 18:38N 43°35' E 028°55'410.8
2017-Sep-26 18:17N 43°38' E 028°54'411.1
2017-Sep-26 17:56N 43°42' E 028°53'510.7
2017-Sep-26 17:30N 43°47' E 028°53'510.6
2017-Sep-26 17:00N 43°52' E 028°52'510.0
2017-Sep-26 16:30N 43°57' E 028°51'3 5.3
2017-Sep-26 16:00N 43°58' E 028°48'510.4
2017-Sep-26 15:30N 44°03' E 028°46'3 5.8
2017-Sep-26 15:00N 44°05' E 028°43'5 8.9
2017-Sep-26 14:30N 44°09' E 028°40'1 1.0
2017-Sep-26 13:59N 44°09' E 028°39'0 0.0
2017-Sep-26 13:29N 44°09' E 028°39'0 0.0
2017-Sep-26 12:59N 44°09' E 028°39'0 0.0
2017-Sep-26 12:29N 44°09' E 028°39'0 0.0
2017-Sep-26 11:59N 44°09' E 028°39'0 0.0
2017-Sep-26 11:29N 44°09' E 028°39'0 0.0
2017-Sep-26 10:59N 44°09' E 028°39'0 0.0
2017-Sep-26 10:26N 44°09' E 028°39'0 0.0
2017-Sep-26 09:56N 44°09' E 028°39'0 0.0
2017-Sep-26 09:29N 44°09' E 028°39'0 0.0
2017-Sep-26 08:59N 44°09' E 028°39'0 0.0
2017-Sep-26 08:29N 44°09' E 028°39'0 0.0
2017-Sep-26 07:53N 44°09' E 028°39'0 0.0
2017-Sep-26 07:29N 44°09' E 028°39'0 0.0
2017-Sep-26 06:59N 44°09' E 028°39'0 0.0
2017-Sep-26 06:29N 44°09' E 028°39'0 0.0
2017-Sep-26 05:59N 44°09' E 028°39'0 0.0
2017-Sep-26 05:29N 44°09' E 028°39'0 0.0
2017-Sep-26 04:59N 44°09' E 028°39'0 0.0
2017-Sep-26 04:29N 44°09' E 028°39'0 0.0
2017-Sep-26 03:59N 44°09' E 028°39'0 0.0
2017-Sep-26 03:29N 44°09' E 028°39'0 0.0
2017-Sep-26 02:59N 44°09' E 028°39'0 0.0
2017-Sep-26 02:29N 44°09' E 028°39'0 0.0
2017-Sep-26 01:59N 44°09' E 028°39'0 0.0
2017-Sep-26 01:29N 44°09' E 028°39'0 0.0
2017-Sep-26 00:59N 44°09' E 028°39'0 0.0
2017-Sep-26 00:29N 44°09' E 028°39'0 0.0
2017-Sep-25 23:59N 44°09' E 028°39'0 0.0
2017-Sep-25 23:29N 44°09' E 028°39'0 0.0
2017-Sep-25 22:56N 44°09' E 028°39'0 0.0
2017-Sep-25 22:29N 44°09' E 028°39'0 0.0
2017-Sep-25 21:59N 44°09' E 028°39'0 0.0
2017-Sep-25 21:29N 44°09' E 028°39'0 0.0
2017-Sep-25 20:56N 44°09' E 028°39'0 0.0
2017-Sep-25 20:29N 44°09' E 028°39'0 0.0
2017-Sep-25 19:59N 44°09' E 028°39'0 0.0
2017-Sep-25 19:29N 44°09' E 028°39'0 0.0
2017-Sep-25 18:59N 44°09' E 028°39'0 0.0
2017-Sep-25 18:26N 44°09' E 028°39'0 0.0
2017-Sep-25 17:59N 44°09' E 028°39'0 0.0
2017-Sep-25 17:29N 44°09' E 028°39'0 0.0
2017-Sep-25 16:59N 44°09' E 028°39'0 0.0
2017-Sep-25 16:29N 44°09' E 028°39'0 0.0
2017-Sep-25 15:59N 44°09' E 028°39'0 0.0
2017-Sep-25 15:29N 44°09' E 028°39'0 0.0
2017-Sep-25 14:59N 44°09' E 028°39'0 0.0
2017-Sep-25 14:29N 44°09' E 028°39'0 0.0
2017-Sep-25 13:59N 44°09' E 028°39'0 0.0
2017-Sep-25 13:29N 44°09' E 028°39'0 0.0
2017-Sep-25 12:59N 44°09' E 028°39'0 0.0
2017-Sep-25 12:29N 44°09' E 028°39'0 0.0
2017-Sep-25 11:59N 44°09' E 028°39'0 0.0
2017-Sep-25 11:29N 44°09' E 028°39'0 0.0
2017-Sep-25 10:59N 44°09' E 028°39'0 0.0
2017-Sep-25 10:26N 44°09' E 028°39'0 0.0
2017-Sep-25 09:59N 44°09' E 028°39'0 0.0
2017-Sep-25 09:29N 44°09' E 028°39'0 0.0
2017-Sep-25 08:59N 44°09' E 028°39'0 0.0
2017-Sep-25 08:29N 44°09' E 028°39'0 0.0
2017-Sep-25 07:59N 44°09' E 028°39'0 0.0
2017-Sep-25 07:29N 44°09' E 028°39'0 0.0
2017-Sep-25 06:59N 44°09' E 028°39'0 0.0
2017-Sep-25 06:29N 44°09' E 028°39'0 0.0
2017-Sep-25 05:59N 44°09' E 028°39'0 0.0
2017-Sep-25 05:29N 44°09' E 028°39'0 0.0
2017-Sep-25 04:56N 44°09' E 028°39'0 0.0
2017-Sep-25 04:29N 44°09' E 028°39'0 0.0
2017-Sep-25 03:59N 44°09' E 028°39'0 0.0
2017-Sep-25 03:29N 44°09' E 028°39'0 0.0
2017-Sep-25 02:59N 44°09' E 028°39'0 0.0
2017-Sep-25 02:29N 44°09' E 028°39'0 0.0
2017-Sep-25 01:59N 44°09' E 028°39'0 0.0
2017-Sep-25 01:29N 44°09' E 028°39'0 0.0
2017-Sep-25 00:59N 44°09' E 028°39'0 0.0
2017-Sep-25 00:29N 44°09' E 028°39'0 0.0
2017-Sep-24 23:59N 44°09' E 028°39'0 0.0
2017-Sep-24 23:29N 44°09' E 028°39'0 0.0
2017-Sep-24 22:59N 44°09' E 028°39'0 0.0
2017-Sep-24 22:29N 44°09' E 028°39'0 0.0
2017-Sep-24 21:59N 44°09' E 028°39'0 0.0
2017-Sep-24 21:29N 44°09' E 028°39'0 0.0
2017-Sep-24 20:59N 44°09' E 028°39'0 0.0
2017-Sep-24 20:29N 44°09' E 028°39'0 0.0
2017-Sep-24 19:59N 44°09' E 028°39'0 0.0
2017-Sep-24 19:29N 44°09' E 028°39'0 0.0
2017-Sep-24 18:59N 44°09' E 028°39'0 0.0
2017-Sep-24 18:20N 44°09' E 028°39'0 0.0
2017-Sep-24 17:59N 44°09' E 028°39'0 0.0
2017-Sep-24 17:29N 44°09' E 028°39'0 0.0
2017-Sep-24 16:59N 44°09' E 028°39'0 0.0
2017-Sep-24 16:29N 44°09' E 028°39'0 0.0
2017-Sep-24 15:59N 44°09' E 028°39'0 0.0
2017-Sep-24 15:29N 44°09' E 028°39'0 0.0
2017-Sep-24 14:59N 44°09' E 028°39'0 0.0
2017-Sep-24 14:29N 44°09' E 028°39'0 0.0
2017-Sep-24 13:59N 44°09' E 028°39'0 0.0
2017-Sep-24 13:29N 44°09' E 028°39'0 0.0
2017-Sep-24 12:59N 44°09' E 028°39'0 0.0
2017-Sep-24 12:29N 44°09' E 028°39'0 0.2
2017-Sep-24 11:59N 44°09' E 028°39'0 0.4
2017-Sep-24 11:29N 44°10' E 028°39'0 0.6
2017-Sep-24 10:59N 44°10' E 028°39'0 0.0
2017-Sep-24 10:29N 44°10' E 028°39'0 0.0
2017-Sep-24 09:59N 44°10' E 028°39'0 0.0
2017-Sep-24 09:29N 44°10' E 028°39'0 0.0
2017-Sep-24 08:59N 44°10' E 028°39'0 0.0
2017-Sep-24 08:29N 44°10' E 028°39'0 0.0
2017-Sep-24 07:59N 44°10' E 028°39'0 0.0
2017-Sep-24 07:29N 44°10' E 028°39'0 0.0
2017-Sep-24 06:59N 44°10' E 028°39'0 0.0
2017-Sep-24 06:29N 44°10' E 028°39'0 0.0
2017-Sep-24 05:59N 44°10' E 028°39'0 0.0
2017-Sep-24 05:29N 44°10' E 028°39'0 0.0
2017-Sep-24 04:59N 44°10' E 028°39'0 0.0
2017-Sep-24 04:29N 44°10' E 028°39'0 0.0
2017-Sep-24 03:59N 44°10' E 028°39'0 0.0
2017-Sep-24 03:26N 44°10' E 028°39'0 0.0
2017-Sep-24 02:59N 44°10' E 028°39'0 0.0
2017-Sep-24 02:26N 44°10' E 028°39'0 0.0
2017-Sep-24 01:59N 44°10' E 028°39'0 0.0
2017-Sep-24 01:29N 44°10' E 028°39'0 0.0
2017-Sep-24 00:59N 44°10' E 028°39'0 0.0
2017-Sep-24 00:29N 44°10' E 028°39'0 0.0
2017-Sep-23 23:59N 44°10' E 028°39'0 0.0
2017-Sep-23 23:29N 44°10' E 028°39'0 0.0
2017-Sep-23 22:59N 44°10' E 028°39'0 0.0
2017-Sep-23 22:29N 44°10' E 028°39'0 0.0
2017-Sep-23 21:59N 44°10' E 028°39'0 0.0
2017-Sep-23 21:29N 44°10' E 028°39'0 0.0
2017-Sep-23 20:59N 44°10' E 028°39'0 0.0
2017-Sep-23 20:29N 44°10' E 028°39'0 0.0
2017-Sep-23 19:59N 44°10' E 028°39'  

Dump ship's entire track history